sensor_id;sensor_type;location;lat;lon;timestamp;P1;durP1;ratioP1;P2;durP2;ratioP2
4630;SDS011;2328;48.170;11.602;2023-04-29T00:01:36;0.60;;;0.47;;
4630;SDS011;2328;48.170;11.602;2023-04-29T00:04:04;1.10;;;0.60;;
4630;SDS011;2328;48.170;11.602;2023-04-29T00:06:34;0.80;;;0.70;;
4630;SDS011;2328;48.170;11.602;2023-04-29T00:09:04;4.63;;;1.13;;
4630;SDS011;2328;48.170;11.602;2023-04-29T00:11:32;0.90;;;0.77;;
4630;SDS011;2328;48.170;11.602;2023-04-29T00:14:01;1.23;;;0.70;;
4630;SDS011;2328;48.170;11.602;2023-04-29T00:16:29;0.80;;;0.60;;
4630;SDS011;2328;48.170;11.602;2023-04-29T00:18:58;1.23;;;0.70;;
4630;SDS011;2328;48.170;11.602;2023-04-29T00:21:27;0.70;;;0.60;;
4630;SDS011;2328;48.170;11.602;2023-04-29T00:23:56;1.00;;;0.60;;
4630;SDS011;2328;48.170;11.602;2023-04-29T00:26:25;0.97;;;0.50;;
4630;SDS011;2328;48.170;11.602;2023-04-29T00:28:54;2.17;;;0.40;;
4630;SDS011;2328;48.170;11.602;2023-04-29T00:31:23;0.80;;;0.60;;
4630;SDS011;2328;48.170;11.602;2023-04-29T00:33:51;0.50;;;0.43;;
4630;SDS011;2328;48.170;11.602;2023-04-29T00:36:22;0.70;;;0.60;;
4630;SDS011;2328;48.170;11.602;2023-04-29T00:38:51;0.70;;;0.70;;
4630;SDS011;2328;48.170;11.602;2023-04-29T00:41:19;0.90;;;0.63;;
4630;SDS011;2328;48.170;11.602;2023-04-29T00:43:50;1.83;;;0.80;;
4630;SDS011;2328;48.170;11.602;2023-04-29T00:46:19;1.33;;;0.90;;
4630;SDS011;2328;48.170;11.602;2023-04-29T00:48:47;0.60;;;0.53;;
4630;SDS011;2328;48.170;11.602;2023-04-29T00:51:15;1.30;;;0.83;;
4630;SDS011;2328;48.170;11.602;2023-04-29T00:53:45;1.10;;;0.77;;
4630;SDS011;2328;48.170;11.602;2023-04-29T00:56:14;0.90;;;0.67;;
4630;SDS011;2328;48.170;11.602;2023-04-29T00:58:44;0.73;;;0.60;;
4630;SDS011;2328;48.170;11.602;2023-04-29T01:01:16;0.70;;;0.60;;
4630;SDS011;2328;48.170;11.602;2023-04-29T01:03:47;0.60;;;0.50;;
4630;SDS011;2328;48.170;11.602;2023-04-29T01:06:19;5.60;;;0.90;;
4630;SDS011;2328;48.170;11.602;2023-04-29T01:08:53;1.00;;;0.93;;
4630;SDS011;2328;48.170;11.602;2023-04-29T01:11:24;0.63;;;0.50;;
4630;SDS011;2328;48.170;11.602;2023-04-29T01:13:57;0.70;;;0.50;;
4630;SDS011;2328;48.170;11.602;2023-04-29T01:16:29;1.00;;;0.80;;
4630;SDS011;2328;48.170;11.602;2023-04-29T01:19:01;1.47;;;1.07;;
4630;SDS011;2328;48.170;11.602;2023-04-29T01:21:35;0.70;;;0.60;;
4630;SDS011;2328;48.170;11.602;2023-04-29T01:24:15;0.80;;;0.70;;
4630;SDS011;2328;48.170;11.602;2023-04-29T01:26:50;1.00;;;0.80;;
4630;SDS011;2328;48.170;11.602;2023-04-29T01:29:24;1.37;;;0.70;;
4630;SDS011;2328;48.170;11.602;2023-04-29T01:31:57;0.60;;;0.50;;
4630;SDS011;2328;48.170;11.602;2023-04-29T01:34:29;1.00;;;0.60;;
4630;SDS011;2328;48.170;11.602;2023-04-29T01:37:01;0.90;;;0.60;;
4630;SDS011;2328;48.170;11.602;2023-04-29T01:39:36;0.80;;;0.40;;
4630;SDS011;2328;48.170;11.602;2023-04-29T01:42:07;0.80;;;0.70;;
4630;SDS011;2328;48.170;11.602;2023-04-29T01:44:37;5.73;;;3.20;;
4630;SDS011;2328;48.170;11.602;2023-04-29T01:47:08;1.77;;;0.90;;
4630;SDS011;2328;48.170;11.602;2023-04-29T01:49:37;1.13;;;0.80;;
4630;SDS011;2328;48.170;11.602;2023-04-29T01:52:08;0.73;;;0.50;;
4630;SDS011;2328;48.170;11.602;2023-04-29T01:54:38;0.70;;;0.70;;
4630;SDS011;2328;48.170;11.602;2023-04-29T01:57:06;0.73;;;0.73;;
4630;SDS011;2328;48.170;11.602;2023-04-29T01:59:34;0.90;;;0.80;;
4630;SDS011;2328;48.170;11.602;2023-04-29T02:02:03;1.10;;;1.00;;
4630;SDS011;2328;48.170;11.602;2023-04-29T02:04:31;1.87;;;0.70;;
4630;SDS011;2328;48.170;11.602;2023-04-29T02:07:00;0.60;;;0.60;;
4630;SDS011;2328;48.170;11.602;2023-04-29T02:09:29;0.70;;;0.70;;
4630;SDS011;2328;48.170;11.602;2023-04-29T02:11:59;0.60;;;0.50;;
4630;SDS011;2328;48.170;11.602;2023-04-29T02:14:30;0.67;;;0.40;;
4630;SDS011;2328;48.170;11.602;2023-04-29T02:17:02;1.43;;;0.80;;
4630;SDS011;2328;48.170;11.602;2023-04-29T02:19:31;0.60;;;0.60;;
4630;SDS011;2328;48.170;11.602;2023-04-29T02:22:00;1.67;;;0.67;;
4630;SDS011;2328;48.170;11.602;2023-04-29T02:24:28;0.73;;;0.70;;
4630;SDS011;2328;48.170;11.602;2023-04-29T02:26:57;0.77;;;0.70;;
4630;SDS011;2328;48.170;11.602;2023-04-29T02:29:26;0.73;;;0.67;;
4630;SDS011;2328;48.170;11.602;2023-04-29T02:31:56;1.10;;;0.70;;
4630;SDS011;2328;48.170;11.602;2023-04-29T02:34:25;2.23;;;1.20;;
4630;SDS011;2328;48.170;11.602;2023-04-29T02:36:53;2.30;;;1.60;;
4630;SDS011;2328;48.170;11.602;2023-04-29T02:39:22;1.10;;;0.80;;
4630;SDS011;2328;48.170;11.602;2023-04-29T02:41:52;1.43;;;1.20;;
4630;SDS011;2328;48.170;11.602;2023-04-29T02:44:21;1.00;;;0.90;;
4630;SDS011;2328;48.170;11.602;2023-04-29T02:46:53;0.83;;;0.60;;
4630;SDS011;2328;48.170;11.602;2023-04-29T02:49:21;1.03;;;0.77;;
4630;SDS011;2328;48.170;11.602;2023-04-29T02:51:50;0.93;;;0.80;;
4630;SDS011;2328;48.170;11.602;2023-04-29T02:54:18;0.70;;;0.67;;
4630;SDS011;2328;48.170;11.602;2023-04-29T02:56:46;1.17;;;0.80;;
4630;SDS011;2328;48.170;11.602;2023-04-29T02:59:16;2.50;;;0.90;;
4630;SDS011;2328;48.170;11.602;2023-04-29T03:01:44;1.20;;;0.80;;
4630;SDS011;2328;48.170;11.602;2023-04-29T03:04:15;0.77;;;0.70;;
4630;SDS011;2328;48.170;11.602;2023-04-29T03:06:44;0.90;;;0.80;;
4630;SDS011;2328;48.170;11.602;2023-04-29T03:09:12;0.90;;;0.73;;
4630;SDS011;2328;48.170;11.602;2023-04-29T03:11:40;0.60;;;0.60;;
4630;SDS011;2328;48.170;11.602;2023-04-29T03:14:09;0.70;;;0.60;;
4630;SDS011;2328;48.170;11.602;2023-04-29T03:16:37;1.50;;;0.80;;
4630;SDS011;2328;48.170;11.602;2023-04-29T03:19:06;1.17;;;0.80;;
4630;SDS011;2328;48.170;11.602;2023-04-29T03:21:37;3.57;;;0.80;;
4630;SDS011;2328;48.170;11.602;2023-04-29T03:24:05;1.00;;;0.87;;
4630;SDS011;2328;48.170;11.602;2023-04-29T03:26:34;1.17;;;1.07;;
4630;SDS011;2328;48.170;11.602;2023-04-29T03:29:02;0.90;;;0.67;;
4630;SDS011;2328;48.170;11.602;2023-04-29T03:31:31;1.57;;;0.80;;
4630;SDS011;2328;48.170;11.602;2023-04-29T03:33:59;0.80;;;0.80;;
4630;SDS011;2328;48.170;11.602;2023-04-29T03:36:27;1.00;;;0.70;;
4630;SDS011;2328;48.170;11.602;2023-04-29T03:38:57;0.87;;;0.87;;
4630;SDS011;2328;48.170;11.602;2023-04-29T03:41:26;1.90;;;0.80;;
4630;SDS011;2328;48.170;11.602;2023-04-29T03:43:54;0.60;;;0.60;;
4630;SDS011;2328;48.170;11.602;2023-04-29T03:46:25;0.70;;;0.63;;
4630;SDS011;2328;48.170;11.602;2023-04-29T03:48:54;0.80;;;0.73;;
4630;SDS011;2328;48.170;11.602;2023-04-29T03:51:23;2.50;;;1.10;;
4630;SDS011;2328;48.170;11.602;2023-04-29T03:53:52;1.33;;;1.10;;
4630;SDS011;2328;48.170;11.602;2023-04-29T03:56:24;2.90;;;1.30;;
4630;SDS011;2328;48.170;11.602;2023-04-29T03:58:52;1.00;;;0.90;;
4630;SDS011;2328;48.170;11.602;2023-04-29T04:01:21;1.10;;;1.00;;
4630;SDS011;2328;48.170;11.602;2023-04-29T04:03:49;1.33;;;1.10;;
4630;SDS011;2328;48.170;11.602;2023-04-29T04:06:18;2.17;;;1.07;;
4630;SDS011;2328;48.170;11.602;2023-04-29T04:08:46;1.20;;;0.93;;
4630;SDS011;2328;48.170;11.602;2023-04-29T04:11:20;0.90;;;0.90;;
4630;SDS011;2328;48.170;11.602;2023-04-29T04:13:50;0.80;;;0.80;;
4630;SDS011;2328;48.170;11.602;2023-04-29T04:16:19;1.30;;;1.20;;
4630;SDS011;2328;48.170;11.602;2023-04-29T04:18:47;1.20;;;1.10;;
4630;SDS011;2328;48.170;11.602;2023-04-29T04:21:16;0.90;;;0.90;;
4630;SDS011;2328;48.170;11.602;2023-04-29T04:23:44;2.00;;;1.33;;
4630;SDS011;2328;48.170;11.602;2023-04-29T04:26:12;1.13;;;1.00;;
4630;SDS011;2328;48.170;11.602;2023-04-29T04:28:41;0.90;;;0.90;;
4630;SDS011;2328;48.170;11.602;2023-04-29T04:31:11;1.40;;;0.90;;
4630;SDS011;2328;48.170;11.602;2023-04-29T04:33:40;0.80;;;0.80;;
4630;SDS011;2328;48.170;11.602;2023-04-29T04:36:08;1.30;;;1.20;;
4630;SDS011;2328;48.170;11.602;2023-04-29T04:38:37;1.13;;;1.03;;
4630;SDS011;2328;48.170;11.602;2023-04-29T04:41:05;1.93;;;1.00;;
4630;SDS011;2328;48.170;11.602;2023-04-29T04:43:34;3.83;;;1.37;;
4630;SDS011;2328;48.170;11.602;2023-04-29T04:46:08;1.33;;;1.20;;
4630;SDS011;2328;48.170;11.602;2023-04-29T04:48:38;2.10;;;1.20;;
4630;SDS011;2328;48.170;11.602;2023-04-29T04:51:07;1.27;;;1.17;;
4630;SDS011;2328;48.170;11.602;2023-04-29T04:53:36;0.90;;;0.90;;
4630;SDS011;2328;48.170;11.602;2023-04-29T04:56:04;11.10;;;1.50;;
4630;SDS011;2328;48.170;11.602;2023-04-29T04:58:33;1.20;;;1.10;;
4630;SDS011;2328;48.170;11.602;2023-04-29T05:01:02;1.30;;;1.20;;
4630;SDS011;2328;48.170;11.602;2023-04-29T05:03:31;1.63;;;1.53;;
4630;SDS011;2328;48.170;11.602;2023-04-29T05:06:02;1.93;;;1.67;;
4630;SDS011;2328;48.170;11.602;2023-04-29T05:08:30;1.20;;;1.10;;
4630;SDS011;2328;48.170;11.602;2023-04-29T05:11:00;0.77;;;0.77;;
4630;SDS011;2328;48.170;11.602;2023-04-29T05:13:28;1.63;;;1.20;;
4630;SDS011;2328;48.170;11.602;2023-04-29T05:16:01;1.63;;;1.47;;
4630;SDS011;2328;48.170;11.602;2023-04-29T05:18:31;1.30;;;1.20;;
4630;SDS011;2328;48.170;11.602;2023-04-29T05:21:05;1.93;;;1.53;;
4630;SDS011;2328;48.170;11.602;2023-04-29T05:23:33;1.60;;;1.50;;
4630;SDS011;2328;48.170;11.602;2023-04-29T05:26:03;2.33;;;2.13;;
4630;SDS011;2328;48.170;11.602;2023-04-29T05:28:32;1.63;;;1.53;;
4630;SDS011;2328;48.170;11.602;2023-04-29T05:31:01;1.93;;;1.83;;
4630;SDS011;2328;48.170;11.602;2023-04-29T05:33:29;1.40;;;1.30;;
4630;SDS011;2328;48.170;11.602;2023-04-29T05:35:58;2.17;;;1.70;;
4630;SDS011;2328;48.170;11.602;2023-04-29T05:38:28;1.63;;;1.40;;
4630;SDS011;2328;48.170;11.602;2023-04-29T05:40:56;4.30;;;1.20;;
4630;SDS011;2328;48.170;11.602;2023-04-29T05:43:24;1.80;;;1.67;;
4630;SDS011;2328;48.170;11.602;2023-04-29T05:45:53;1.83;;;1.43;;
4630;SDS011;2328;48.170;11.602;2023-04-29T05:48:21;1.23;;;1.13;;
4630;SDS011;2328;48.170;11.602;2023-04-29T05:50:50;1.83;;;1.70;;
4630;SDS011;2328;48.170;11.602;2023-04-29T05:53:22;1.90;;;1.30;;
4630;SDS011;2328;48.170;11.602;2023-04-29T05:55:51;1.43;;;1.33;;
4630;SDS011;2328;48.170;11.602;2023-04-29T05:58:27;1.30;;;1.20;;
4630;SDS011;2328;48.170;11.602;2023-04-29T06:00:55;1.40;;;1.20;;
4630;SDS011;2328;48.170;11.602;2023-04-29T06:03:26;1.30;;;1.20;;
4630;SDS011;2328;48.170;11.602;2023-04-29T06:05:55;1.60;;;1.17;;
4630;SDS011;2328;48.170;11.602;2023-04-29T06:08:24;1.30;;;1.20;;
4630;SDS011;2328;48.170;11.602;2023-04-29T06:10:54;1.60;;;1.50;;
4630;SDS011;2328;48.170;11.602;2023-04-29T06:13:23;1.40;;;1.30;;
4630;SDS011;2328;48.170;11.602;2023-04-29T06:15:51;2.17;;;1.80;;
4630;SDS011;2328;48.170;11.602;2023-04-29T06:18:20;3.17;;;2.10;;
4630;SDS011;2328;48.170;11.602;2023-04-29T06:20:49;2.60;;;2.40;;
4630;SDS011;2328;48.170;11.602;2023-04-29T06:23:18;3.20;;;2.80;;
4630;SDS011;2328;48.170;11.602;2023-04-29T06:25:46;2.40;;;2.20;;
4630;SDS011;2328;48.170;11.602;2023-04-29T06:28:19;3.23;;;2.10;;
4630;SDS011;2328;48.170;11.602;2023-04-29T06:30:48;4.37;;;3.00;;
4630;SDS011;2328;48.170;11.602;2023-04-29T06:33:17;2.30;;;2.10;;
4630;SDS011;2328;48.170;11.602;2023-04-29T06:35:45;2.90;;;2.60;;
4630;SDS011;2328;48.170;11.602;2023-04-29T06:38:13;3.60;;;2.90;;
4630;SDS011;2328;48.170;11.602;2023-04-29T06:40:42;2.33;;;2.10;;
4630;SDS011;2328;48.170;11.602;2023-04-29T06:43:11;2.53;;;2.17;;
4630;SDS011;2328;48.170;11.602;2023-04-29T06:45:46;5.00;;;2.47;;
4630;SDS011;2328;48.170;11.602;2023-04-29T06:48:14;3.57;;;2.80;;
4630;SDS011;2328;48.170;11.602;2023-04-29T06:50:48;3.00;;;2.60;;
4630;SDS011;2328;48.170;11.602;2023-04-29T06:53:16;6.33;;;3.37;;
4630;SDS011;2328;48.170;11.602;2023-04-29T06:55:45;3.90;;;3.00;;
4630;SDS011;2328;48.170;11.602;2023-04-29T06:58:16;3.47;;;3.00;;
4630;SDS011;2328;48.170;11.602;2023-04-29T07:00:48;4.10;;;2.80;;
4630;SDS011;2328;48.170;11.602;2023-04-29T07:03:25;4.60;;;3.30;;
4630;SDS011;2328;48.170;11.602;2023-04-29T07:05:55;3.43;;;3.13;;
4630;SDS011;2328;48.170;11.602;2023-04-29T07:08:26;3.23;;;2.70;;
4630;SDS011;2328;48.170;11.602;2023-04-29T07:10:56;2.60;;;2.40;;
4630;SDS011;2328;48.170;11.602;2023-04-29T07:13:44;2.47;;;2.27;;
4630;SDS011;2328;48.170;11.602;2023-04-29T07:16:42;4.03;;;2.43;;
4630;SDS011;2328;48.170;11.602;2023-04-29T07:19:11;4.07;;;2.40;;
4630;SDS011;2328;48.170;11.602;2023-04-29T07:21:49;2.17;;;1.93;;
4630;SDS011;2328;48.170;11.602;2023-04-29T07:24:33;2.80;;;2.10;;
4630;SDS011;2328;48.170;11.602;2023-04-29T07:27:01;2.30;;;1.83;;
4630;SDS011;2328;48.170;11.602;2023-04-29T07:29:30;2.30;;;1.77;;
4630;SDS011;2328;48.170;11.602;2023-04-29T07:32:00;3.03;;;1.97;;
4630;SDS011;2328;48.170;11.602;2023-04-29T07:34:35;2.03;;;1.93;;
4630;SDS011;2328;48.170;11.602;2023-04-29T07:37:04;1.97;;;1.87;;
4630;SDS011;2328;48.170;11.602;2023-04-29T07:39:32;1.90;;;1.80;;
4630;SDS011;2328;48.170;11.602;2023-04-29T07:42:11;3.00;;;1.90;;
4630;SDS011;2328;48.170;11.602;2023-04-29T07:44:50;2.40;;;2.20;;
4630;SDS011;2328;48.170;11.602;2023-04-29T07:47:23;2.13;;;2.00;;
4630;SDS011;2328;48.170;11.602;2023-04-29T07:49:53;4.80;;;1.53;;
4630;SDS011;2328;48.170;11.602;2023-04-29T07:52:32;1.70;;;1.60;;
4630;SDS011;2328;48.170;11.602;2023-04-29T07:55:06;2.80;;;2.27;;
4630;SDS011;2328;48.170;11.602;2023-04-29T07:57:34;5.40;;;2.30;;
4630;SDS011;2328;48.170;11.602;2023-04-29T08:00:04;3.07;;;1.43;;
4630;SDS011;2328;48.170;11.602;2023-04-29T08:02:39;1.70;;;1.60;;
4630;SDS011;2328;48.170;11.602;2023-04-29T08:05:08;1.73;;;1.63;;
4630;SDS011;2328;48.170;11.602;2023-04-29T08:07:44;2.40;;;1.70;;
4630;SDS011;2328;48.170;11.602;2023-04-29T08:10:13;4.30;;;2.03;;
4630;SDS011;2328;48.170;11.602;2023-04-29T08:12:44;6.67;;;1.90;;
4630;SDS011;2328;48.170;11.602;2023-04-29T08:15:13;1.77;;;1.67;;
4630;SDS011;2328;48.170;11.602;2023-04-29T08:17:43;1.33;;;1.23;;
4630;SDS011;2328;48.170;11.602;2023-04-29T08:20:12;3.63;;;1.70;;
4630;SDS011;2328;48.170;11.602;2023-04-29T08:22:41;2.00;;;1.70;;
4630;SDS011;2328;48.170;11.602;2023-04-29T08:25:09;3.63;;;1.50;;
4630;SDS011;2328;48.170;11.602;2023-04-29T08:27:40;1.97;;;1.87;;
4630;SDS011;2328;48.170;11.602;2023-04-29T08:30:11;2.00;;;1.70;;
4630;SDS011;2328;48.170;11.602;2023-04-29T08:32:40;1.53;;;1.43;;
4630;SDS011;2328;48.170;11.602;2023-04-29T08:35:10;1.60;;;1.50;;
4630;SDS011;2328;48.170;11.602;2023-04-29T08:37:39;1.43;;;1.33;;
4630;SDS011;2328;48.170;11.602;2023-04-29T08:40:08;1.83;;;1.63;;
4630;SDS011;2328;48.170;11.602;2023-04-29T08:42:37;1.30;;;1.20;;
4630;SDS011;2328;48.170;11.602;2023-04-29T08:45:06;0.90;;;0.90;;
4630;SDS011;2328;48.170;11.602;2023-04-29T08:47:35;1.43;;;1.33;;
4630;SDS011;2328;48.170;11.602;2023-04-29T08:50:04;1.30;;;1.20;;
4630;SDS011;2328;48.170;11.602;2023-04-29T08:52:35;1.67;;;1.57;;
4630;SDS011;2328;48.170;11.602;2023-04-29T08:55:04;1.63;;;1.53;;
4630;SDS011;2328;48.170;11.602;2023-04-29T08:57:34;1.30;;;1.20;;
4630;SDS011;2328;48.170;11.602;2023-04-29T09:00:06;2.90;;;1.63;;
4630;SDS011;2328;48.170;11.602;2023-04-29T09:02:37;1.67;;;0.80;;
4630;SDS011;2328;48.170;11.602;2023-04-29T09:05:09;1.30;;;1.10;;
4630;SDS011;2328;48.170;11.602;2023-04-29T09:07:39;1.77;;;0.93;;
4630;SDS011;2328;48.170;11.602;2023-04-29T09:10:08;1.20;;;1.00;;
4630;SDS011;2328;48.170;11.602;2023-04-29T09:12:38;1.90;;;1.30;;
4630;SDS011;2328;48.170;11.602;2023-04-29T09:15:08;1.50;;;1.40;;
4630;SDS011;2328;48.170;11.602;2023-04-29T09:17:37;3.33;;;1.27;;
4630;SDS011;2328;48.170;11.602;2023-04-29T09:22:53;1.20;;;1.20;;
4630;SDS011;2328;48.170;11.602;2023-04-29T09:25:21;1.20;;;1.10;;
4630;SDS011;2328;48.170;11.602;2023-04-29T09:27:52;0.93;;;0.93;;
4630;SDS011;2328;48.170;11.602;2023-04-29T09:30:22;1.53;;;1.43;;
4630;SDS011;2328;48.170;11.602;2023-04-29T09:33:02;1.73;;;1.00;;
4630;SDS011;2328;48.170;11.602;2023-04-29T09:35:32;1.57;;;0.80;;
4630;SDS011;2328;48.170;11.602;2023-04-29T09:38:09;1.10;;;1.00;;
4630;SDS011;2328;48.170;11.602;2023-04-29T09:40:38;1.07;;;0.83;;
4630;SDS011;2328;48.170;11.602;2023-04-29T09:43:23;1.10;;;1.00;;
4630;SDS011;2328;48.170;11.602;2023-04-29T09:45:52;1.10;;;1.00;;
4630;SDS011;2328;48.170;11.602;2023-04-29T09:48:22;1.40;;;1.03;;
4630;SDS011;2328;48.170;11.602;2023-04-29T09:51:00;1.87;;;0.97;;
4630;SDS011;2328;48.170;11.602;2023-04-29T09:53:31;0.90;;;0.90;;
4630;SDS011;2328;48.170;11.602;2023-04-29T09:56:03;2.23;;;1.10;;
4630;SDS011;2328;48.170;11.602;2023-04-29T09:58:33;2.30;;;1.17;;
4630;SDS011;2328;48.170;11.602;2023-04-29T10:01:03;1.00;;;1.00;;
4630;SDS011;2328;48.170;11.602;2023-04-29T10:03:33;1.50;;;1.00;;
4630;SDS011;2328;48.170;11.602;2023-04-29T10:06:04;1.57;;;1.33;;
4630;SDS011;2328;48.170;11.602;2023-04-29T10:08:35;1.27;;;1.17;;
4630;SDS011;2328;48.170;11.602;2023-04-29T10:11:05;1.20;;;1.10;;
4630;SDS011;2328;48.170;11.602;2023-04-29T10:13:34;1.40;;;1.27;;
4630;SDS011;2328;48.170;11.602;2023-04-29T10:16:09;1.40;;;1.30;;
4630;SDS011;2328;48.170;11.602;2023-04-29T10:18:40;2.23;;;2.03;;
4630;SDS011;2328;48.170;11.602;2023-04-29T10:21:10;3.93;;;1.60;;
4630;SDS011;2328;48.170;11.602;2023-04-29T10:23:41;1.70;;;1.60;;
4630;SDS011;2328;48.170;11.602;2023-04-29T10:26:12;2.50;;;1.60;;
4630;SDS011;2328;48.170;11.602;2023-04-29T10:28:42;2.80;;;1.57;;
4630;SDS011;2328;48.170;11.602;2023-04-29T10:31:12;1.40;;;1.30;;
4630;SDS011;2328;48.170;11.602;2023-04-29T10:33:42;5.60;;;1.30;;
4630;SDS011;2328;48.170;11.602;2023-04-29T10:36:11;1.03;;;0.90;;
4630;SDS011;2328;48.170;11.602;2023-04-29T10:38:43;1.67;;;1.30;;
4630;SDS011;2328;48.170;11.602;2023-04-29T10:41:26;3.13;;;1.50;;
4630;SDS011;2328;48.170;11.602;2023-04-29T10:43:55;1.63;;;1.53;;
4630;SDS011;2328;48.170;11.602;2023-04-29T10:46:34;1.47;;;1.37;;
4630;SDS011;2328;48.170;11.602;2023-04-29T10:49:12;2.10;;;1.37;;
4630;SDS011;2328;48.170;11.602;2023-04-29T10:51:41;1.17;;;1.07;;
4630;SDS011;2328;48.170;11.602;2023-04-29T10:54:15;2.13;;;1.10;;
4630;SDS011;2328;48.170;11.602;2023-04-29T10:56:48;1.10;;;1.00;;
4630;SDS011;2328;48.170;11.602;2023-04-29T10:59:45;1.40;;;1.30;;
4630;SDS011;2328;48.170;11.602;2023-04-29T11:02:15;2.03;;;1.67;;
4630;SDS011;2328;48.170;11.602;2023-04-29T11:07:33;3.70;;;1.10;;
4630;SDS011;2328;48.170;11.602;2023-04-29T11:10:05;2.90;;;1.20;;
4630;SDS011;2328;48.170;11.602;2023-04-29T11:12:42;1.83;;;1.17;;
4630;SDS011;2328;48.170;11.602;2023-04-29T11:15:11;1.40;;;1.20;;
4630;SDS011;2328;48.170;11.602;2023-04-29T11:17:45;2.30;;;1.00;;
4630;SDS011;2328;48.170;11.602;2023-04-29T11:20:16;0.77;;;0.73;;
4630;SDS011;2328;48.170;11.602;2023-04-29T11:22:46;1.03;;;1.03;;
4630;SDS011;2328;48.170;11.602;2023-04-29T11:25:24;3.17;;;1.20;;
4630;SDS011;2328;48.170;11.602;2023-04-29T11:27:53;0.87;;;0.87;;
4630;SDS011;2328;48.170;11.602;2023-04-29T11:30:22;1.20;;;0.70;;
4630;SDS011;2328;48.170;11.602;2023-04-29T11:32:52;1.27;;;1.07;;
4630;SDS011;2328;48.170;11.602;2023-04-29T11:35:21;0.90;;;0.90;;
4630;SDS011;2328;48.170;11.602;2023-04-29T11:37:58;1.23;;;1.00;;
4630;SDS011;2328;48.170;11.602;2023-04-29T11:40:28;1.03;;;1.00;;
4630;SDS011;2328;48.170;11.602;2023-04-29T11:42:59;1.00;;;1.00;;
4630;SDS011;2328;48.170;11.602;2023-04-29T11:45:28;1.30;;;1.00;;
4630;SDS011;2328;48.170;11.602;2023-04-29T11:47:56;2.30;;;0.90;;
4630;SDS011;2328;48.170;11.602;2023-04-29T11:50:25;0.70;;;0.60;;
4630;SDS011;2328;48.170;11.602;2023-04-29T11:52:54;0.80;;;0.80;;
4630;SDS011;2328;48.170;11.602;2023-04-29T11:55:36;1.03;;;0.93;;
4630;SDS011;2328;48.170;11.602;2023-04-29T11:58:05;0.87;;;0.87;;
4630;SDS011;2328;48.170;11.602;2023-04-29T12:00:34;2.10;;;0.93;;
4630;SDS011;2328;48.170;11.602;2023-04-29T12:03:06;1.23;;;1.13;;
4630;SDS011;2328;48.170;11.602;2023-04-29T12:05:35;0.90;;;0.73;;
4630;SDS011;2328;48.170;11.602;2023-04-29T12:08:05;1.63;;;0.80;;
4630;SDS011;2328;48.170;11.602;2023-04-29T12:10:37;0.80;;;0.53;;
4630;SDS011;2328;48.170;11.602;2023-04-29T12:13:07;1.03;;;0.90;;
4630;SDS011;2328;48.170;11.602;2023-04-29T12:15:36;0.80;;;0.80;;
4630;SDS011;2328;48.170;11.602;2023-04-29T12:18:05;1.03;;;0.80;;
4630;SDS011;2328;48.170;11.602;2023-04-29T12:20:34;0.53;;;0.47;;
4630;SDS011;2328;48.170;11.602;2023-04-29T12:23:11;0.97;;;0.93;;
4630;SDS011;2328;48.170;11.602;2023-04-29T12:25:41;0.90;;;0.90;;
4630;SDS011;2328;48.170;11.602;2023-04-29T12:28:10;1.03;;;0.93;;
4630;SDS011;2328;48.170;11.602;2023-04-29T12:30:39;1.23;;;0.87;;
4630;SDS011;2328;48.170;11.602;2023-04-29T12:33:08;1.00;;;0.90;;
4630;SDS011;2328;48.170;11.602;2023-04-29T12:35:37;1.60;;;0.90;;
4630;SDS011;2328;48.170;11.602;2023-04-29T12:38:06;1.33;;;0.90;;
4630;SDS011;2328;48.170;11.602;2023-04-29T12:40:36;0.80;;;0.80;;
4630;SDS011;2328;48.170;11.602;2023-04-29T12:43:10;1.03;;;0.93;;
4630;SDS011;2328;48.170;11.602;2023-04-29T12:45:39;0.70;;;0.70;;
4630;SDS011;2328;48.170;11.602;2023-04-29T12:48:08;0.70;;;0.60;;
4630;SDS011;2328;48.170;11.602;2023-04-29T12:50:51;1.33;;;1.00;;
4630;SDS011;2328;48.170;11.602;2023-04-29T12:53:24;3.40;;;0.80;;
4630;SDS011;2328;48.170;11.602;2023-04-29T12:55:53;1.60;;;0.97;;
4630;SDS011;2328;48.170;11.602;2023-04-29T12:58:28;0.70;;;0.60;;
4630;SDS011;2328;48.170;11.602;2023-04-29T13:00:57;0.73;;;0.63;;
4630;SDS011;2328;48.170;11.602;2023-04-29T13:03:26;1.00;;;0.90;;
4630;SDS011;2328;48.170;11.602;2023-04-29T13:05:57;0.70;;;0.70;;
4630;SDS011;2328;48.170;11.602;2023-04-29T13:08:27;1.63;;;1.00;;
4630;SDS011;2328;48.170;11.602;2023-04-29T13:10:56;0.63;;;0.60;;
4630;SDS011;2328;48.170;11.602;2023-04-29T13:13:25;0.97;;;0.80;;
4630;SDS011;2328;48.170;11.602;2023-04-29T13:15:56;2.10;;;1.00;;
4630;SDS011;2328;48.170;11.602;2023-04-29T13:18:24;0.60;;;0.60;;
4630;SDS011;2328;48.170;11.602;2023-04-29T13:20:53;0.70;;;0.70;;
4630;SDS011;2328;48.170;11.602;2023-04-29T13:23:22;0.70;;;0.60;;
4630;SDS011;2328;48.170;11.602;2023-04-29T13:25:50;0.70;;;0.70;;
4630;SDS011;2328;48.170;11.602;2023-04-29T13:28:25;0.60;;;0.60;;
4630;SDS011;2328;48.170;11.602;2023-04-29T13:30:53;1.13;;;0.60;;
4630;SDS011;2328;48.170;11.602;2023-04-29T13:33:24;3.43;;;0.73;;
4630;SDS011;2328;48.170;11.602;2023-04-29T13:35:53;0.90;;;0.80;;
4630;SDS011;2328;48.170;11.602;2023-04-29T13:38:22;1.20;;;1.10;;
4630;SDS011;2328;48.170;11.602;2023-04-29T13:40:53;0.60;;;0.50;;
4630;SDS011;2328;48.170;11.602;2023-04-29T13:43:21;0.70;;;0.70;;
4630;SDS011;2328;48.170;11.602;2023-04-29T13:46:03;0.60;;;0.50;;
4630;SDS011;2328;48.170;11.602;2023-04-29T13:48:36;0.80;;;0.60;;
4630;SDS011;2328;48.170;11.602;2023-04-29T13:51:07;0.70;;;0.60;;
4630;SDS011;2328;48.170;11.602;2023-04-29T13:53:41;0.80;;;0.67;;
4630;SDS011;2328;48.170;11.602;2023-04-29T13:56:30;0.80;;;0.70;;
4630;SDS011;2328;48.170;11.602;2023-04-29T13:59:01;0.63;;;0.63;;
4630;SDS011;2328;48.170;11.602;2023-04-29T14:01:34;0.70;;;0.70;;
4630;SDS011;2328;48.170;11.602;2023-04-29T14:04:24;6.00;;;0.90;;
4630;SDS011;2328;48.170;11.602;2023-04-29T14:06:53;1.10;;;0.80;;
4630;SDS011;2328;48.170;11.602;2023-04-29T14:09:24;0.60;;;0.40;;
4630;SDS011;2328;48.170;11.602;2023-04-29T14:11:53;0.80;;;0.60;;
4630;SDS011;2328;48.170;11.602;2023-04-29T14:14:22;0.90;;;0.60;;
4630;SDS011;2328;48.170;11.602;2023-04-29T14:16:54;0.70;;;0.70;;
4630;SDS011;2328;48.170;11.602;2023-04-29T14:19:32;2.10;;;1.00;;
4630;SDS011;2328;48.170;11.602;2023-04-29T14:22:02;0.73;;;0.73;;
4630;SDS011;2328;48.170;11.602;2023-04-29T14:24:31;0.70;;;0.60;;
4630;SDS011;2328;48.170;11.602;2023-04-29T14:26:59;0.60;;;0.60;;
4630;SDS011;2328;48.170;11.602;2023-04-29T14:29:28;1.07;;;0.97;;
4630;SDS011;2328;48.170;11.602;2023-04-29T14:31:59;0.60;;;0.60;;
4630;SDS011;2328;48.170;11.602;2023-04-29T14:34:37;0.77;;;0.70;;
4630;SDS011;2328;48.170;11.602;2023-04-29T14:37:09;0.80;;;0.70;;
4630;SDS011;2328;48.170;11.602;2023-04-29T14:39:37;0.80;;;0.70;;
4630;SDS011;2328;48.170;11.602;2023-04-29T14:42:07;2.30;;;0.70;;
4630;SDS011;2328;48.170;11.602;2023-04-29T14:44:35;0.90;;;0.80;;
4630;SDS011;2328;48.170;11.602;2023-04-29T14:47:04;0.70;;;0.60;;
4630;SDS011;2328;48.170;11.602;2023-04-29T14:49:39;0.63;;;0.60;;
4630;SDS011;2328;48.170;11.602;2023-04-29T14:52:08;0.80;;;0.60;;
4630;SDS011;2328;48.170;11.602;2023-04-29T14:54:38;0.70;;;0.70;;
4630;SDS011;2328;48.170;11.602;2023-04-29T14:57:08;0.73;;;0.70;;
4630;SDS011;2328;48.170;11.602;2023-04-29T14:59:37;0.73;;;0.60;;
4630;SDS011;2328;48.170;11.602;2023-04-29T15:02:10;0.70;;;0.57;;
4630;SDS011;2328;48.170;11.602;2023-04-29T15:04:40;0.90;;;0.70;;
4630;SDS011;2328;48.170;11.602;2023-04-29T15:07:11;1.90;;;0.93;;
4630;SDS011;2328;48.170;11.602;2023-04-29T15:09:42;1.47;;;0.90;;
4630;SDS011;2328;48.170;11.602;2023-04-29T15:12:19;1.00;;;0.90;;
4630;SDS011;2328;48.170;11.602;2023-04-29T15:14:48;1.17;;;0.80;;
4630;SDS011;2328;48.170;11.602;2023-04-29T15:17:18;0.70;;;0.60;;
4630;SDS011;2328;48.170;11.602;2023-04-29T15:19:48;0.70;;;0.70;;
4630;SDS011;2328;48.170;11.602;2023-04-29T15:22:16;2.20;;;0.83;;
4630;SDS011;2328;48.170;11.602;2023-04-29T15:24:45;0.97;;;0.87;;
4630;SDS011;2328;48.170;11.602;2023-04-29T15:27:13;1.17;;;0.60;;